createdAt,value
2022-09-23T00:01:11.259Z,9.76
2022-09-23T00:03:41.450Z,9.73
2022-09-23T00:06:13.729Z,9.71
2022-09-23T00:08:41.329Z,9.72
2022-09-23T00:11:20.804Z,9.73
2022-09-23T00:13:49.613Z,9.73
2022-09-23T00:16:25.451Z,9.72
2022-09-23T00:18:52.432Z,9.72
2022-09-23T00:21:20.529Z,9.69
2022-09-23T00:23:47.921Z,9.67
2022-09-23T00:26:17.023Z,9.64
2022-09-23T00:28:43.574Z,9.61
2022-09-23T00:31:12.849Z,9.60
2022-09-23T00:33:40.666Z,9.59
2022-09-23T00:36:11.125Z,9.59
2022-09-23T00:38:38.371Z,9.59
2022-09-23T00:41:06.396Z,9.58
2022-09-23T00:43:58.314Z,9.58
2022-09-23T00:46:38.933Z,9.54
2022-09-23T00:49:30.080Z,9.53
2022-09-23T00:51:58.049Z,9.52
2022-09-23T00:54:27.525Z,9.49
2022-09-23T00:56:55.477Z,9.50
2022-09-23T00:59:24.420Z,9.50
2022-09-23T01:01:54.916Z,9.50
2022-09-23T01:04:26.065Z,9.48
2022-09-23T01:06:52.811Z,9.48
2022-09-23T01:09:20.603Z,9.47
2022-09-23T01:12:19.569Z,9.47
2022-09-23T01:15:00.479Z,9.43
2022-09-23T01:17:32.791Z,9.42
2022-09-23T01:20:30.626Z,9.43
2022-09-23T01:23:40.574Z,9.42
2022-09-23T01:26:25.911Z,9.41
2022-09-23T01:29:15.179Z,9.39
2022-09-23T01:31:56.730Z,9.38
2022-09-23T01:34:32.749Z,9.35
2022-09-23T01:37:11.706Z,9.31
2022-09-23T01:39:47.962Z,9.32
2022-09-23T01:42:39.469Z,9.31
2022-09-23T01:45:09.714Z,9.31
2022-09-23T01:47:43.324Z,9.28
2022-09-23T01:50:36.542Z,9.28
2022-09-23T01:53:10.892Z,9.28
2022-09-23T01:55:42.927Z,9.26
2022-09-23T01:58:21.454Z,9.27
2022-09-23T02:01:00.053Z,9.25
2022-09-23T02:03:51.938Z,9.23
2022-09-23T02:06:26.012Z,9.21
2022-09-23T02:09:07.133Z,9.20
2022-09-23T02:11:36.416Z,9.18
2022-09-23T02:14:15.533Z,9.19
2022-09-23T02:16:50.466Z,9.18
2022-09-23T02:19:50.750Z,9.18
2022-09-23T02:22:26.349Z,9.15
2022-09-23T02:24:54.760Z,9.16
2022-09-23T02:27:33.110Z,9.16
2022-09-23T02:30:02.659Z,9.14
2022-09-23T02:32:42.101Z,9.15
2022-09-23T02:35:26.882Z,9.15
2022-09-23T02:38:19.735Z,9.12
2022-09-23T02:41:10.459Z,9.10
2022-09-23T02:44:07.641Z,9.09
2022-09-23T02:46:35.408Z,9.06
2022-09-23T02:49:29.524Z,9.05
2022-09-23T02:51:59.884Z,9.02
2022-09-23T02:54:29.245Z,9.01
2022-09-23T02:56:57.378Z,8.99
2022-09-23T02:59:24.470Z,8.97
2022-09-23T03:02:00.049Z,8.92
2022-09-23T03:04:32.350Z,8.91
2022-09-23T03:07:20.047Z,8.90
2022-09-23T03:10:07.278Z,8.87
2022-09-23T03:13:04.849Z,8.84
2022-09-23T03:15:57.368Z,8.78
2022-09-23T03:18:37.045Z,8.76
2022-09-23T03:21:17.254Z,8.72
2022-09-23T03:23:46.487Z,8.69
2022-09-23T03:26:20.869Z,8.65
2022-09-23T03:28:47.705Z,8.61
2022-09-23T03:31:15.537Z,8.59
2022-09-23T03:33:47.244Z,8.58
2022-09-23T03:36:37.570Z,8.56
2022-09-23T03:39:12.906Z,8.54
2022-09-23T03:41:51.716Z,8.51
2022-09-23T03:44:19.692Z,8.49
2022-09-23T03:46:49.859Z,8.47
2022-09-23T03:49:21.280Z,8.44
2022-09-23T03:51:47.841Z,8.40
2022-09-23T03:54:14.457Z,8.39
2022-09-23T03:56:40.963Z,8.37
2022-09-23T03:59:07.621Z,8.36
2022-09-23T04:01:34.190Z,8.34
2022-09-23T04:04:00.979Z,8.34
2022-09-23T04:06:27.447Z,8.34
2022-09-23T04:08:53.998Z,8.33
2022-09-23T04:11:20.660Z,8.33
2022-09-23T04:13:47.162Z,8.32
2022-09-23T04:16:13.722Z,8.31
2022-09-23T04:18:40.243Z,8.30
2022-09-23T04:21:06.759Z,8.28
2022-09-23T04:23:33.316Z,8.28
2022-09-23T04:25:59.778Z,8.27
2022-09-23T04:28:26.482Z,8.26
2022-09-23T04:30:54.027Z,8.25
2022-09-23T04:33:20.581Z,8.23
2022-09-23T04:35:51.767Z,8.19
2022-09-23T04:38:18.868Z,8.19
2022-09-23T04:40:45.490Z,8.17
2022-09-23T04:43:15.776Z,8.17
2022-09-23T04:45:43.802Z,8.16
2022-09-23T04:48:11.618Z,8.14
2022-09-23T04:50:38.525Z,8.14
2022-09-23T04:53:05.582Z,8.12
2022-09-23T04:55:32.274Z,8.11
2022-09-23T04:57:58.862Z,8.08
2022-09-23T05:00:27.018Z,8.07
2022-09-23T05:02:53.631Z,8.05
2022-09-23T05:05:21.177Z,8.03
2022-09-23T05:07:48.514Z,8.02
2022-09-23T05:10:16.015Z,7.99
2022-09-23T05:12:42.801Z,7.98
2022-09-23T05:15:09.749Z,7.98
2022-09-23T05:17:37.394Z,7.97
2022-09-23T05:20:04.999Z,7.94
2022-09-23T05:22:31.829Z,7.94
2022-09-23T05:25:00.306Z,7.92
2022-09-23T05:27:27.256Z,7.92
2022-09-23T05:29:53.825Z,7.92
2022-09-23T05:32:21.164Z,7.91
2022-09-23T05:34:47.850Z,7.93
2022-09-23T05:37:14.347Z,7.96
2022-09-23T05:39:41.150Z,7.96
2022-09-23T05:42:08.032Z,8.00
2022-09-23T05:44:34.498Z,8.03
2022-09-23T05:47:01.136Z,8.06
2022-09-23T05:49:42.859Z,8.11
2022-09-23T05:52:14.248Z,8.15
2022-09-23T05:54:41.256Z,8.21
2022-09-23T05:57:08.037Z,8.28
2022-09-23T05:59:34.626Z,8.34
2022-09-23T06:02:01.652Z,8.43
2022-09-23T06:04:28.276Z,8.52
2022-09-23T06:06:59.214Z,8.62
2022-09-23T06:09:29.291Z,8.73
2022-09-23T06:11:57.433Z,8.84
2022-09-23T06:14:23.976Z,8.97
2022-09-23T06:16:50.636Z,9.13
2022-09-23T06:19:17.378Z,9.28
2022-09-23T06:21:43.947Z,9.45
2022-09-23T06:24:14.152Z,9.62
2022-09-23T06:26:43.445Z,9.81
2022-09-23T06:29:11.985Z,10.08
2022-09-23T06:31:42.171Z,10.50
2022-09-23T06:34:14.158Z,10.96
2022-09-23T06:36:44.945Z,11.44
2022-09-23T06:39:13.585Z,11.73
2022-09-23T06:41:40.266Z,11.94
2022-09-23T06:44:06.951Z,12.14
2022-09-23T06:46:33.747Z,12.36
2022-09-23T06:49:02.135Z,12.49
2022-09-23T06:51:28.725Z,12.55
2022-09-23T06:53:56.026Z,12.49
2022-09-23T06:56:23.684Z,12.42
2022-09-23T06:58:52.522Z,12.34
2022-09-23T07:01:19.781Z,12.26
2022-09-23T07:03:48.307Z,12.16
2022-09-23T07:06:16.095Z,12.09
2022-09-23T07:08:45.212Z,12.04
2022-09-23T07:11:13.299Z,11.98
2022-09-23T07:13:41.386Z,11.94
2022-09-23T07:16:09.961Z,11.92
2022-09-23T07:18:37.631Z,11.92
2022-09-23T07:21:07.154Z,11.94
2022-09-23T07:23:34.018Z,11.95
2022-09-23T07:26:01.295Z,11.98
2022-09-23T07:28:29.094Z,12.01
2022-09-23T07:31:00.438Z,12.07
2022-09-23T07:33:33.068Z,12.08
2022-09-23T07:36:05.119Z,12.13
2022-09-23T07:38:32.022Z,12.15
2022-09-23T07:41:08.137Z,12.20
2022-09-23T07:43:35.145Z,12.24
2022-09-23T07:46:05.858Z,12.30
2022-09-23T07:48:34.670Z,12.37
2022-09-23T07:51:36.607Z,12.44
2022-09-23T07:54:07.413Z,12.52
2022-09-23T07:56:35.930Z,12.60
2022-09-23T07:59:05.533Z,12.69
2022-09-23T08:01:41.487Z,12.77
2022-09-23T08:04:21.067Z,12.84
2022-09-23T08:06:50.722Z,12.89
2022-09-23T08:09:21.846Z,12.94
2022-09-23T08:11:49.509Z,13.01
2022-09-23T08:14:18.001Z,13.07
2022-09-23T08:16:47.192Z,13.13
2022-09-23T08:19:15.048Z,13.17
2022-09-23T08:21:42.459Z,13.21
2022-09-23T08:24:13.517Z,13.27
2022-09-23T08:26:40.245Z,13.29
2022-09-23T08:29:10.361Z,13.35
2022-09-23T08:31:37.008Z,13.41
2022-09-23T08:34:03.634Z,13.47
2022-09-23T08:36:31.318Z,13.53
2022-09-23T08:38:58.243Z,13.59
2022-09-23T08:41:38.896Z,13.64
2022-09-23T08:44:29.120Z,13.72
2022-09-23T08:47:16.555Z,13.78
2022-09-23T08:49:59.156Z,13.83
2022-09-23T08:52:47.752Z,13.91
2022-09-23T08:55:15.429Z,13.99
2022-09-23T08:58:24.005Z,14.03
2022-09-23T09:01:21.950Z,14.12
2022-09-23T09:04:00.957Z,14.24
2022-09-23T09:06:52.512Z,14.33
2022-09-23T09:09:23.751Z,14.48
2022-09-23T09:11:58.121Z,14.66
2022-09-23T09:14:57.287Z,14.82
2022-09-23T09:17:38.355Z,14.94
2022-09-23T09:20:38.123Z,15.00
2022-09-23T09:23:40.596Z,15.03
2022-09-23T09:26:15.705Z,15.09
2022-09-23T09:28:48.897Z,15.11
2022-09-23T09:31:37.986Z,15.16
2022-09-23T09:34:12.061Z,15.27
2022-09-23T09:36:48.312Z,15.39
2022-09-23T09:39:15.716Z,15.54
2022-09-23T09:41:47.443Z,15.66
2022-09-23T09:44:31.656Z,15.77
2022-09-23T09:47:23.977Z,15.86
2022-09-23T09:49:59.205Z,15.94
2022-09-23T09:52:29.561Z,16.00
2022-09-23T09:55:13.778Z,16.05
2022-09-23T09:57:44.100Z,16.08
2022-09-23T10:00:26.427Z,16.10
2022-09-23T10:03:14.722Z,16.17
2022-09-23T10:05:44.981Z,16.24
2022-09-23T10:09:02.086Z,16.28
2022-09-23T10:11:30.064Z,16.30
2022-09-23T10:14:02.428Z,16.35
2022-09-23T10:16:31.839Z,16.38
2022-09-23T10:19:00.806Z,16.43
2022-09-23T10:21:36.339Z,16.49
2022-09-23T10:24:06.608Z,16.60
2022-09-23T10:26:43.256Z,16.69
2022-09-23T10:29:31.347Z,16.74
2022-09-23T10:32:37.339Z,16.80
2022-09-23T10:35:10.655Z,16.84
2022-09-23T10:37:52.873Z,16.91
2022-09-23T10:44:13.086Z,17.02
2022-09-23T10:47:17.963Z,17.07
2022-09-23T10:49:58.802Z,17.12
2022-09-23T10:52:43.483Z,17.21
2022-09-23T10:55:09.982Z,17.32
2022-09-23T10:58:04.374Z,17.41
2022-09-23T11:00:43.214Z,17.47
2022-09-23T11:03:34.924Z,17.54
2022-09-23T11:06:13.657Z,17.59
2022-09-23T11:08:53.471Z,17.65
2022-09-23T11:11:29.803Z,17.73
2022-09-23T11:14:41.205Z,17.81
2022-09-23T11:17:14.969Z,17.85
2022-09-23T11:20:03.447Z,17.88
2022-09-23T11:22:57.367Z,17.92
2022-09-23T11:25:36.257Z,18.02
2022-09-23T11:28:17.809Z,18.07
2022-09-23T11:30:56.098Z,18.09
2022-09-23T11:33:28.778Z,18.15
2022-09-23T11:36:12.609Z,18.20
2022-09-23T11:38:45.840Z,18.26
2022-09-23T11:41:17.957Z,18.27
2022-09-23T11:43:53.676Z,18.27
2022-09-23T11:46:27.539Z,18.29
2022-09-23T11:49:05.018Z,18.29
2022-09-23T11:51:44.911Z,18.27
2022-09-23T11:54:22.809Z,18.27
2022-09-23T11:56:57.036Z,18.25
2022-09-23T11:59:38.424Z,18.30
2022-09-23T12:02:20.730Z,18.31
2022-09-23T12:05:12.863Z,18.32
2022-09-23T12:08:02.882Z,18.39
2022-09-23T12:10:51.711Z,18.44
2022-09-23T12:13:35.316Z,18.47
2022-09-23T12:16:25.989Z,18.53
2022-09-23T12:19:19.061Z,18.58
2022-09-23T12:22:00.835Z,18.59
2022-09-23T12:24:41.022Z,18.61
2022-09-23T12:27:12.192Z,18.62
2022-09-23T12:29:41.407Z,18.65
2022-09-23T12:32:16.804Z,18.69
2022-09-23T12:34:49.203Z,18.69
2022-09-23T12:37:43.341Z,18.69
2022-09-23T12:40:27.595Z,18.71
2022-09-23T12:42:54.686Z,18.74
2022-09-23T12:45:32.495Z,18.78
2022-09-23T12:48:01.050Z,18.83
2022-09-23T12:50:50.827Z,18.88
2022-09-23T12:53:35.806Z,18.93
2022-09-23T12:56:18.745Z,18.98
2022-09-23T12:58:48.332Z,18.97
2022-09-23T13:01:17.182Z,18.93
2022-09-23T13:04:11.510Z,18.92
2022-09-23T13:06:40.566Z,18.90
2022-09-23T13:09:22.592Z,18.85
2022-09-23T13:11:50.367Z,18.84
2022-09-23T13:14:26.778Z,18.80
2022-09-23T13:16:57.185Z,18.79
2022-09-23T13:19:27.023Z,18.80
2022-09-23T13:21:53.629Z,18.82
2022-09-23T13:24:22.953Z,18.85
2022-09-23T13:26:57.302Z,18.90
2022-09-23T13:29:28.038Z,18.97
2022-09-23T13:31:58.078Z,19.01
2022-09-23T13:34:30.549Z,19.08
2022-09-23T13:36:57.342Z,19.12
2022-09-23T13:39:26.511Z,19.16
2022-09-23T13:41:58.946Z,19.18
2022-09-23T13:44:25.575Z,19.23
2022-09-23T13:46:58.095Z,19.28
2022-09-23T13:49:34.051Z,19.30
2022-09-23T13:52:02.621Z,19.30
2022-09-23T13:54:48.809Z,19.26
2022-09-23T13:57:33.998Z,19.26
2022-09-23T14:00:02.317Z,19.27
2022-09-23T14:02:29.012Z,19.26
2022-09-23T14:04:58.978Z,19.25
2022-09-23T14:07:26.061Z,19.22
2022-09-23T14:09:55.731Z,19.15
2022-09-23T14:12:22.750Z,19.11
2022-09-23T14:14:52.798Z,19.13
2022-09-23T14:17:23.025Z,19.11
2022-09-23T14:19:50.470Z,19.03
2022-09-23T14:22:25.681Z,19.01
2022-09-23T14:24:53.965Z,18.99
2022-09-23T14:27:40.481Z,18.92
2022-09-23T14:30:19.086Z,18.87
2022-09-23T14:32:47.921Z,18.84
2022-09-23T14:35:42.794Z,18.80
2022-09-23T14:38:27.956Z,18.77
2022-09-23T14:41:15.772Z,18.76
2022-09-23T14:43:59.191Z,18.70
2022-09-23T14:46:28.975Z,18.69
2022-09-23T14:49:01.076Z,18.69
2022-09-23T14:52:00.526Z,18.68
2022-09-23T14:54:40.557Z,18.67
2022-09-23T14:57:25.419Z,18.67
2022-09-23T15:00:14.206Z,18.69
2022-09-23T15:02:45.561Z,18.72
2022-09-23T15:05:15.651Z,18.73
2022-09-23T15:07:46.387Z,18.72
2022-09-23T15:10:31.827Z,18.74
2022-09-23T15:13:17.040Z,18.71
2022-09-23T15:15:44.295Z,18.69
2022-09-23T15:18:22.785Z,18.68
2022-09-23T15:20:55.360Z,18.67
2022-09-23T15:23:43.223Z,18.68
2022-09-23T15:26:15.968Z,18.69
2022-09-23T15:28:43.844Z,18.68
2022-09-23T15:31:18.797Z,18.67
2022-09-23T15:33:47.764Z,18.64
2022-09-23T15:36:23.020Z,18.62
2022-09-23T15:38:49.786Z,18.59
2022-09-23T15:41:17.372Z,18.57
2022-09-23T15:43:44.623Z,18.54
2022-09-23T15:46:19.356Z,18.52
2022-09-23T15:49:08.991Z,18.49
2022-09-23T15:51:37.386Z,18.45
2022-09-23T15:54:05.991Z,18.42
2022-09-23T15:56:33.462Z,18.39
2022-09-23T15:59:00.915Z,18.36
2022-09-23T16:01:30.650Z,18.33
2022-09-23T16:03:57.590Z,18.31
2022-09-23T16:06:24.409Z,18.28
2022-09-23T16:08:52.255Z,18.26
2022-09-23T16:11:24.927Z,18.22
2022-09-23T16:13:51.867Z,18.18
2022-09-23T16:16:22.276Z,18.15
2022-09-23T16:18:51.307Z,18.12
2022-09-23T16:21:21.366Z,18.07
2022-09-23T16:23:49.977Z,18.04
2022-09-23T16:26:20.852Z,18.01
2022-09-23T16:28:50.510Z,17.98
2022-09-23T16:31:17.520Z,17.96
2022-09-23T16:33:45.232Z,17.94
2022-09-23T16:36:21.173Z,17.90
2022-09-23T16:38:48.201Z,17.87
2022-09-23T16:41:14.889Z,17.82
2022-09-23T16:43:41.996Z,17.79
2022-09-23T16:46:12.199Z,17.76
2022-09-23T16:48:44.988Z,17.72
2022-09-23T16:51:20.518Z,17.70
2022-09-23T16:53:51.480Z,17.68
2022-09-23T16:56:25.731Z,17.65
2022-09-23T16:58:54.887Z,17.62
2022-09-23T17:01:42.491Z,17.57
2022-09-23T17:04:10.737Z,17.53
2022-09-23T17:06:43.662Z,17.50
2022-09-23T17:09:11.538Z,17.46
2022-09-23T17:11:38.209Z,17.42
2022-09-23T17:14:05.851Z,17.34
2022-09-23T17:16:34.363Z,17.27
2022-09-23T17:19:07.174Z,17.20
2022-09-23T17:21:34.312Z,17.14
2022-09-23T17:24:01.420Z,17.07
2022-09-23T17:26:28.418Z,17.01
2022-09-23T17:28:57.368Z,16.98
2022-09-23T17:31:25.249Z,16.91
2022-09-23T17:33:52.722Z,16.88
2022-09-23T17:36:20.549Z,16.83
2022-09-23T17:38:48.461Z,16.78
2022-09-23T17:41:18.139Z,16.73
2022-09-23T17:43:46.786Z,16.72
2022-09-23T17:46:18.663Z,16.68
2022-09-23T17:48:45.578Z,16.65
2022-09-23T17:51:18.864Z,16.61
2022-09-23T17:53:47.843Z,16.55
2022-09-23T17:56:20.494Z,16.51
2022-09-23T17:58:48.880Z,16.46
2022-09-23T18:01:24.178Z,16.43
2022-09-23T18:03:55.130Z,16.40
2022-09-23T18:06:23.255Z,16.35
2022-09-23T18:08:50.969Z,16.32
2022-09-23T18:11:21.901Z,16.28
2022-09-23T18:13:53.537Z,16.25
2022-09-23T18:16:23.673Z,16.22
2022-09-23T18:18:55.430Z,16.22
2022-09-23T18:21:24.233Z,16.17
2022-09-23T18:23:51.147Z,16.14
2022-09-23T18:26:23.126Z,16.13
2022-09-23T18:28:52.863Z,16.08
2022-09-23T18:31:20.389Z,16.06
2022-09-23T18:33:51.560Z,16.03
2022-09-23T18:36:19.713Z,15.98
2022-09-23T18:38:47.024Z,15.98
2022-09-23T18:41:14.008Z,15.96
2022-09-23T18:43:45.110Z,15.91
2022-09-23T18:46:16.909Z,15.88
2022-09-23T18:49:03.310Z,15.86
2022-09-23T18:51:32.154Z,15.83
2022-09-23T18:54:00.780Z,15.83
2022-09-23T18:56:39.618Z,15.79
2022-09-23T18:59:07.395Z,15.76
2022-09-23T19:01:34.530Z,15.74
2022-09-23T19:04:04.597Z,15.71
2022-09-23T19:06:37.533Z,15.69
2022-09-23T19:09:06.024Z,15.68
2022-09-23T19:11:36.210Z,15.68
2022-09-23T19:14:05.993Z,15.66
2022-09-23T19:16:33.298Z,15.64
2022-09-23T19:19:00.663Z,15.66
2022-09-23T19:21:29.153Z,15.64
2022-09-23T19:23:59.094Z,15.64
2022-09-23T19:26:32.101Z,15.63
2022-09-23T19:29:00.556Z,15.61
2022-09-23T19:31:30.069Z,15.58
2022-09-23T19:34:13.930Z,15.56
2022-09-23T19:36:43.134Z,15.53
2022-09-23T19:39:18.557Z,15.53
2022-09-23T19:41:46.284Z,15.50
2022-09-23T19:44:13.155Z,15.48
2022-09-23T19:46:42.884Z,15.48
2022-09-23T19:49:11.090Z,15.48
2022-09-23T19:51:38.946Z,15.44
2022-09-23T19:54:07.395Z,15.42
2022-09-23T19:56:35.926Z,15.42
2022-09-23T19:59:05.945Z,15.40
2022-09-23T20:01:33.183Z,15.38
2022-09-23T20:04:00.313Z,15.33
2022-09-23T20:06:31.612Z,15.31
2022-09-23T20:09:01.051Z,15.32
2022-09-23T20:11:29.062Z,15.33
2022-09-23T20:14:01.810Z,15.33
2022-09-23T20:16:32.347Z,15.32
2022-09-23T20:19:00.244Z,15.30
2022-09-23T20:21:28.347Z,15.30
2022-09-23T20:23:55.561Z,15.28
2022-09-23T20:26:41.070Z,15.28
2022-09-23T20:29:08.955Z,15.26
2022-09-23T20:31:36.004Z,15.23
2022-09-23T20:34:05.772Z,15.23
2022-09-23T20:36:34.061Z,15.21
2022-09-23T20:39:05.386Z,15.20
2022-09-23T20:41:35.901Z,15.20
2022-09-23T20:44:02.968Z,15.20
2022-09-23T20:46:30.270Z,15.20
2022-09-23T20:48:57.077Z,15.17
2022-09-23T20:51:24.810Z,15.16
2022-09-23T20:53:53.046Z,15.14
2022-09-23T20:56:23.480Z,15.12
2022-09-23T20:58:52.566Z,15.13
2022-09-23T21:01:19.865Z,15.12
2022-09-23T21:03:48.606Z,15.11
2022-09-23T21:06:17.349Z,15.12
2022-09-23T21:08:44.721Z,15.12
2022-09-23T21:11:14.899Z,15.13
2022-09-23T21:13:46.824Z,15.12
2022-09-23T21:16:15.323Z,15.12
2022-09-23T21:18:42.014Z,15.08
2022-09-23T21:21:10.496Z,15.05
2022-09-23T21:23:39.090Z,15.05
2022-09-23T21:26:07.292Z,15.03
2022-09-23T21:28:36.234Z,15.04
2022-09-23T21:31:05.981Z,15.02
2022-09-23T21:33:33.079Z,15.01
2022-09-23T21:36:03.522Z,14.98
2022-09-23T21:38:37.212Z,14.97
2022-09-23T21:41:06.936Z,14.95
2022-09-23T21:43:36.006Z,14.93
2022-09-23T21:46:08.020Z,14.93
2022-09-23T21:48:37.618Z,14.88
2022-09-23T21:51:07.280Z,14.88
2022-09-23T21:53:36.406Z,14.87
2022-09-23T21:56:08.625Z,14.83
2022-09-23T21:58:37.379Z,14.82
2022-09-23T22:01:15.653Z,14.81
2022-09-23T22:03:43.518Z,14.81
2022-09-23T22:06:11.865Z,14.79
2022-09-23T22:08:40.947Z,14.81
2022-09-23T22:11:33.502Z,14.80
2022-09-23T22:14:02.157Z,14.79
2022-09-23T22:16:29.426Z,14.77
2022-09-23T22:18:58.292Z,14.77
2022-09-23T22:21:26.720Z,14.78
2022-09-23T22:23:58.474Z,14.75
2022-09-23T22:26:25.457Z,14.75
2022-09-23T22:29:10.640Z,14.74
2022-09-23T22:31:55.989Z,14.74
2022-09-23T22:34:49.193Z,14.74
2022-09-23T22:37:25.586Z,14.72
2022-09-23T22:39:52.925Z,14.70
2022-09-23T22:42:22.448Z,14.68
2022-09-23T22:44:50.238Z,14.68
2022-09-23T22:47:20.143Z,14.67
2022-09-23T22:49:47.535Z,14.67
2022-09-23T22:52:16.168Z,14.66
2022-09-23T22:54:43.066Z,14.65
2022-09-23T22:57:10.527Z,14.63
2022-09-23T22:59:37.530Z,14.64
2022-09-23T23:02:06.659Z,14.64
2022-09-23T23:04:33.564Z,14.64
2022-09-23T23:07:00.180Z,14.63
2022-09-23T23:09:26.689Z,14.61
2022-09-23T23:11:53.261Z,14.60
2022-09-23T23:14:20.015Z,14.59
2022-09-23T23:16:47.027Z,14.59
2022-09-23T23:19:17.168Z,14.59
2022-09-23T23:21:45.257Z,14.58
2022-09-23T23:24:20.582Z,14.57
2022-09-23T23:26:47.445Z,14.57
2022-09-23T23:29:15.944Z,14.57
2022-09-23T23:31:42.918Z,14.56
2022-09-23T23:34:20.976Z,14.57
2022-09-23T23:36:54.699Z,14.56
2022-09-23T23:39:23.773Z,14.57
2022-09-23T23:41:57.023Z,14.56
2022-09-23T23:44:25.515Z,14.55
2022-09-23T23:46:52.588Z,14.55
2022-09-23T23:49:19.548Z,14.52
2022-09-23T23:51:46.474Z,14.53
2022-09-23T23:54:13.040Z,14.51
2022-09-23T23:56:39.696Z,14.53
2022-09-23T23:59:06.432Z,14.52
